Time;durP1;ratioP1;P1;durP2;ratioP2;P2;SDS_P1;SDS_P2;PMS_P1;PMS_P2;Temp;Humidity;BMP_temperature;BMP_pressure;BME280_temperature;BME280_humidity;BME280_pressure;Samples;Min_cycle;Max_cycle;Signal;HPM_P1;HPM_P2
2023/03/24 00:00:43;;;;;;;9.98;4.07;;;;;;;-146.25;100.00;52439.16;2079785;28;20917;-72
2023/03/24 00:01:45;;;;;;;12.73;4.97;;;;;;;-146.25;100.00;52406.72;2071656;28;24717;-70
2023/03/24 00:02:48;;;;;;;9.27;4.60;;;;;;;-146.25;100.00;52402.66;2072050;28;20975;-70
2023/03/24 00:03:53;;;;;;;9.90;4.13;;;;;;;-146.25;100.00;52382.38;2080419;28;20042;-70
2023/03/24 00:04:57;;;;;;;10.23;4.50;;;;;;;-146.25;100.00;52431.06;2080815;28;20046;-70
2023/03/24 00:06:03;;;;;;;13.30;4.18;;;;;;;-146.25;100.00;52394.56;2080334;28;20872;-70
2023/03/24 00:07:05;;;;;;;12.48;4.72;;;;;;;-146.25;100.00;52424.97;2080528;28;20045;-70
2023/03/24 00:08:07;;;;;;;9.60;4.22;;;;;;;-146.25;100.00;52384.41;2079862;28;20046;-70
2023/03/24 00:09:10;;;;;;;10.50;4.20;;;;;;;-146.25;100.00;52420.91;2079626;28;23805;-70
2023/03/24 00:10:19;;;;;;;9.32;4.05;;;;;;;-146.25;100.00;52412.81;2080411;28;20038;-72
2023/03/24 00:11:21;;;;;;;11.40;4.72;;;;;;;-146.25;100.00;52420.91;2079782;28;20859;-71
2023/03/24 00:12:24;;;;;;;9.10;4.03;;;;;;;-146.25;100.00;52392.53;2079702;28;20042;-70
2023/03/24 00:13:26;;;;;;;8.90;4.32;;;;;;;-146.25;100.00;52445.25;2080193;28;24400;-72
2023/03/24 00:14:29;;;;;;;8.93;4.50;;;;;;;-146.25;100.00;52416.84;2079611;28;24081;-71
2023/03/24 00:15:32;;;;;;;11.13;4.20;;;;;;;-146.25;100.00;52406.72;2079351;28;24261;-72
2023/03/24 00:16:37;;;;;;;11.45;4.10;;;;;;;-146.25;100.00;52433.06;2080137;28;21883;-71
2023/03/24 00:17:39;;;;;;;8.93;3.72;;;;;;;-146.25;100.00;52414.84;2079877;28;20038;-72
2023/03/24 00:18:49;;;;;;;9.70;3.92;;;;;;;-146.25;100.00;52429.03;2071447;28;21576;-71
2023/03/24 00:19:51;;;;;;;11.60;4.80;;;;;;;-146.25;100.00;52400.63;2072735;28;23983;-69
2023/03/24 00:20:57;;;;;;;12.30;4.28;;;;;;;-146.25;100.00;52412.81;2079823;28;20165;-70
2023/03/24 00:21:59;;;;;;;10.07;4.15;;;;;;;-146.25;100.00;52420.91;2080160;28;20045;-71
2023/03/24 00:23:02;;;;;;;12.05;3.92;;;;;;;-146.25;100.00;52388.47;2079912;28;20164;-70
2023/03/24 00:24:08;;;;;;;8.15;3.80;;;;;;;-146.25;100.00;52429.03;2079698;28;20876;-70
2023/03/24 00:25:12;;;;;;;11.30;4.10;;;;;;;-146.25;100.00;52406.72;2079970;28;22792;-70
2023/03/24 00:26:15;;;;;;;7.78;3.95;;;;;;;-146.25;100.00;52396.59;2071450;28;20903;-71
2023/03/24 00:27:17;;;;;;;10.55;4.20;;;;;;;-146.25;100.00;52416.84;2063646;28;20043;-70
2023/03/24 00:28:19;;;;;;;10.70;4.25;;;;;;;-146.25;100.00;52463.50;2071930;28;20046;-70
2023/03/24 00:29:26;;;;;;;6.45;3.90;;;;;;;-146.25;100.00;52429.03;2079518;28;20034;-70
2023/03/24 00:30:28;;;;;;;8.63;4.10;;;;;;;-146.25;100.00;52378.34;2080179;28;20046;-70
2023/03/24 00:31:30;;;;;;;13.77;4.38;;;;;;;-146.25;100.00;52396.59;2080417;28;20069;-70
2023/03/24 00:32:38;;;;;;;8.63;3.80;;;;;;;-146.25;100.00;52429.03;2080100;28;20163;-70
2023/03/24 00:33:49;;;;;;;11.82;4.53;;;;;;;-146.25;100.00;52418.88;2080755;28;20041;-69
2023/03/24 00:34:51;;;;;;;8.38;4.18;;;;;;;-146.25;100.00;52396.59;2080388;28;20772;-69
2023/03/24 00:35:53;;;;;;;8.10;3.83;;;;;;;-146.25;100.00;52412.81;2080210;28;22583;-71
2023/03/24 00:36:54;;;;;;;11.25;3.97;;;;;;;-146.25;100.00;52427.00;2080391;28;20112;-71
2023/03/24 00:37:57;;;;;;;7.40;3.85;;;;;;;-146.25;100.00;52402.66;2080493;28;20041;-69
2023/03/24 00:38:59;;;;;;;11.23;4.80;;;;;;;-146.25;100.00;52384.41;2078992;28;20080;-70
2023/03/24 00:40:01;;;;;;;8.65;3.88;;;;;;;-146.25;100.00;52429.03;2079823;28;20046;-70
2023/03/24 00:41:06;;;;;;;13.27;4.00;;;;;;;-146.25;100.00;52420.91;2080051;28;20827;-70
2023/03/24 00:42:08;;;;;;;10.60;4.40;;;;;;;-146.25;100.00;52406.72;2080138;28;20041;-71
2023/03/24 00:43:12;;;;;;;7.90;4.03;;;;;;;-146.25;100.00;52422.94;2071235;28;20057;-69
2023/03/24 00:44:18;;;;;;;9.45;3.83;;;;;;;-146.25;100.00;52402.66;2071755;28;20888;-72
2023/03/24 00:45:24;;;;;;;11.82;4.60;;;;;;;-146.25;100.00;52412.81;2080505;28;20040;-71
2023/03/24 00:46:26;;;;;;;10.98;4.40;;;;;;;-146.25;100.00;52384.41;2079717;28;20038;-71
2023/03/24 00:47:35;;;;;;;9.13;4.40;;;;;;;-146.25;100.00;52412.81;2079534;28;20204;-72
2023/03/24 00:48:40;;;;;;;;;;;;;;;-146.25;100.00;52422.94;2071848;28;20053;-71
2023/03/24 00:49:45;;;;;;;11.77;4.38;;;;;;;-146.25;100.00;52412.81;2071783;28;20149;-71
2023/03/24 00:50:49;;;;;;;11.07;3.92;;;;;;;-146.25;100.00;52416.84;2080191;28;20239;-71
2023/03/24 00:51:50;;;;;;;8.45;4.18;;;;;;;-146.25;100.00;52433.06;2080162;28;20104;-70
2023/03/24 00:52:54;;;;;;;9.93;4.20;;;;;;;-146.25;100.00;52416.84;2071019;28;20085;-72
2023/03/24 00:53:56;;;;;;;7.63;4.05;;;;;;;-146.25;100.00;52418.88;2071931;28;20046;-71
2023/03/24 00:55:01;;;;;;;11.82;4.30;;;;;;;-146.25;100.00;52414.84;2079247;28;20119;-71
2023/03/24 00:56:03;;;;;;;8.10;4.00;;;;;;;-146.25;100.00;52416.84;2071413;28;20086;-70
2023/03/24 00:57:07;;;;;;;9.43;4.13;;;;;;;-146.25;100.00;52439.16;2071874;28;20042;-70
2023/03/24 00:58:09;;;;;;;7.28;3.63;;;;;;;-146.25;100.00;52386.44;2079917;28;20128;-70
2023/03/24 00:59:12;;;;;;;9.55;4.38;;;;;;;-146.25;100.00;52447.28;2080102;28;21033;-70
2023/03/24 01:00:19;;;;;;;10.63;4.47;;;;;;;-146.25;100.00;52398.59;2080431;28;20034;-70
2023/03/24 01:01:21;;;;;;;10.32;4.45;;;;;;;-146.25;100.00;52427.00;2070921;28;20046;-69
2023/03/24 01:02:26;;;;;;;9.10;4.32;;;;;;;-146.25;100.00;52447.28;2071244;28;20046;-70
2023/03/24 01:03:28;;;;;;;9.05;4.32;;;;;;;-146.25;100.00;52441.19;2079755;28;20026;-71
2023/03/24 01:04:30;;;;;;;9.90;4.70;;;;;;;-146.25;100.00;52427.00;2080304;28;20038;-72
2023/03/24 01:05:35;;;;;;;9.63;4.40;;;;;;;-146.25;100.00;52420.91;2071259;28;20043;-69
2023/03/24 01:06:38;;;;;;;9.05;4.65;;;;;;;-146.25;100.00;52424.97;2063027;28;22044;-70
2023/03/24 01:07:42;;;;;;;9.63;4.40;;;;;;;-146.25;100.00;52431.06;2071564;28;20039;-70
2023/03/24 01:08:44;;;;;;;8.43;4.57;;;;;;;-146.25;100.00;52380.38;2079624;28;20914;-71
2023/03/24 01:09:56;;;;;;;11.95;4.47;;;;;;;-146.25;100.00;52451.31;2070919;28;20043;-71
2023/03/24 01:10:59;;;;;;;9.82;4.85;;;;;;;-146.25;100.00;52424.97;2073280;28;20042;-70
2023/03/24 01:12:03;;;;;;;8.60;4.78;;;;;;;-146.25;100.00;52392.53;2070715;28;20152;-71
2023/03/24 01:13:05;;;;;;;10.93;5.15;;;;;;;-146.25;100.00;52433.06;2063577;28;20039;-72
2023/03/24 01:14:09;;;;;;;11.85;4.30;;;;;;;-146.25;100.00;52416.84;2063026;28;20046;-71
2023/03/24 01:15:16;;;;;;;8.23;4.65;;;;;;;-146.25;100.00;52394.56;2071870;28;20042;-70
2023/03/24 01:16:19;;;;;;;11.30;4.30;;;;;;;-146.25;100.00;52427.00;2079305;28;20038;-70
2023/03/24 01:17:21;;;;;;;10.40;4.88;;;;;;;-146.25;100.00;52384.41;2071260;28;20157;-71
2023/03/24 01:18:23;;;;;;;9.80;4.70;;;;;;;-146.25;100.00;52402.66;2071173;28;20124;-71
2023/03/24 01:19:25;;;;;;;12.82;5.05;;;;;;;-146.25;100.00;52400.63;2080166;28;20041;-72
2023/03/24 01:20:31;;;;;;;9.45;4.55;;;;;;;-146.25;100.00;52392.53;2079981;28;20042;-71
2023/03/24 01:21:37;;;;;;;11.02;4.70;;;;;;;-146.25;100.00;52372.25;2070794;28;20120;-71
2023/03/24 01:22:43;;;;;;;7.05;4.15;;;;;;;-146.25;100.00;52412.81;2071717;28;20214;-71
2023/03/24 01:23:46;;;;;;;10.23;5.03;;;;;;;-146.25;100.00;52429.03;2080989;28;20038;-71
2023/03/24 01:24:49;;;;;;;11.35;5.00;;;;;;;-146.25;100.00;52392.53;2080888;28;20042;-72
2023/03/24 01:25:52;;;;;;;9.32;4.53;;;;;;;-146.25;100.00;52414.84;2081015;28;20065;-71
2023/03/24 01:26:54;;;;;;;10.85;4.93;;;;;;;-146.25;100.00;52412.81;2081120;28;20041;-71
2023/03/24 01:27:57;;;;;;;8.70;4.95;;;;;;;-146.25;100.00;52414.84;2081426;28;20046;-71
2023/03/24 01:29:01;;;;;;;10.98;4.78;;;;;;;-146.25;100.00;52445.25;2081246;28;20033;-72
2023/03/24 01:30:05;;;;;;;9.15;5.28;;;;;;;-146.25;100.00;52424.97;2072179;28;20081;-72
2023/03/24 01:31:09;;;;;;;9.35;5.40;;;;;;;-146.25;100.00;52412.81;2072919;28;21071;-72
2023/03/24 01:32:11;;;;;;;9.73;5.25;;;;;;;-146.25;100.00;52400.63;2080703;28;21084;-73
2023/03/24 01:33:13;;;;;;;11.73;5.22;;;;;;;-146.25;100.00;52431.06;2081087;28;20034;-74
2023/03/24 01:34:15;;;;;;;9.27;5.30;;;;;;;-146.25;100.00;52412.81;2081075;28;20042;-73
2023/03/24 01:35:18;;;;;;;11.13;5.65;;;;;;;-146.25;100.00;52408.75;2081661;28;20451;-73
2023/03/24 01:36:19;;;;;;;11.75;5.75;;;;;;;-146.25;100.00;52392.53;2081654;28;20045;-73
2023/03/24 01:37:23;;;;;;;9.30;5.60;;;;;;;-146.25;100.00;52441.19;2081601;28;20042;-72
2023/03/24 01:38:25;;;;;;;12.70;6.22;;;;;;;-146.25;100.00;52418.88;2072642;28;20809;-72
2023/03/24 01:39:28;;;;;;;9.88;6.32;;;;;;;-146.25;100.00;52433.06;2064499;28;20155;-73
2023/03/24 01:40:33;;;;;;;8.43;5.75;;;;;;;-146.25;100.00;52398.59;2073018;28;20034;-72
2023/03/24 01:41:38;;;;;;;12.07;6.63;;;;;;;-146.25;100.00;52418.88;2081202;28;20104;-72
2023/03/24 01:42:46;;;;;;;10.13;6.45;;;;;;;-146.25;100.00;52398.59;2080671;28;20112;-72
2023/03/24 01:43:49;;;;;;;12.13;6.47;;;;;;;-146.25;100.00;52435.09;2072665;28;20042;-72
2023/03/24 01:44:59;;;;;;;10.35;6.32;;;;;;;-146.25;100.00;52424.97;2072619;28;20043;-71
2023/03/24 01:46:28;;;;;;;11.32;6.57;;;;;;;-146.25;100.00;52435.09;2080735;28;20944;-72
2023/03/24 01:47:30;;;;;;;11.68;6.43;;;;;;;-146.25;100.00;52449.31;2079267;28;20994;-71
2023/03/24 01:48:50;;;;;;;10.10;7.15;;;;;;;-146.25;100.00;52412.81;2080814;28;20112;-71
2023/03/24 01:50:01;;;;;;;10.38;7.03;;;;;;;-146.25;100.00;52418.88;2081260;28;20938;-71
2023/03/24 01:51:11;;;;;;;11.60;7.20;;;;;;;-146.25;100.00;52414.84;2072292;28;20904;-72
2023/03/24 01:52:22;;;;;;;9.88;6.85;;;;;;;-146.25;100.00;52418.88;2073378;28;20058;-71
2023/03/24 01:53:26;;;;;;;11.55;7.13;;;;;;;-146.25;100.00;52422.94;2071983;28;20043;-72
2023/03/24 01:54:41;;;;;;;13.63;7.55;;;;;;;-146.25;100.00;52406.72;2072956;28;20034;-72
2023/03/24 01:55:46;;;;;;;14.35;7.00;;;;;;;-146.25;100.00;52418.88;2072420;28;20049;-72
2023/03/24 01:57:07;;;;;;;14.35;7.82;;;;;;;-146.25;100.00;52416.84;2073254;28;20148;-72
2023/03/24 01:58:11;;;;;;;10.57;7.50;;;;;;;-146.25;100.00;52420.91;2072354;28;20967;-72
2023/03/24 01:59:29;;;;;;;12.20;8.43;;;;;;;-146.25;100.00;52424.97;2074147;28;20109;-72
2023/03/24 02:00:44;;;;;;;11.68;7.75;;;;;;;-146.25;100.00;52424.97;2072514;28;20050;-70
2023/03/24 02:02:13;;;;;;;13.20;8.25;;;;;;;-146.25;100.00;52429.03;2078218;28;20930;-71
2023/03/24 02:03:29;;;;;;;11.52;7.82;;;;;;;-146.25;100.00;52439.16;2072099;28;20090;-72
2023/03/24 02:04:40;;;;;;;11.48;8.27;;;;;;;-146.25;100.00;52429.03;2073067;28;20049;-71
2023/03/24 02:05:46;;;;;;;11.70;8.30;;;;;;;-146.25;100.00;52433.06;2072596;28;20108;-71
2023/03/24 02:06:49;;;;;;;13.88;8.57;;;;;;;-146.25;100.00;52437.13;2057846;28;20888;-72
2023/03/24 02:08:29;;;;;;;14.77;8.70;;;;;;;-146.25;100.00;52433.06;2065271;28;20770;-70
2023/03/24 02:09:31;;;;;;;13.40;8.50;;;;;;;-146.25;100.00;52396.59;2064386;28;20804;-71
2023/03/24 02:10:36;;;;;;;13.80;9.30;;;;;;;-146.25;100.00;52445.25;2068199;28;20039;-71
2023/03/24 02:11:43;;;;;;;16.25;9.27;;;;;;;-146.25;100.00;52410.78;2064325;28;21013;-70
2023/03/24 02:12:48;;;;;;;13.45;9.27;;;;;;;-146.25;100.00;52400.63;2051365;28;21147;-72
2023/03/24 02:13:51;;;;;;;13.20;9.05;;;;;;;-146.25;100.00;52406.72;2057891;28;20854;-72
2023/03/24 02:14:53;;;;;;;13.82;8.75;;;;;;;-146.25;100.00;52429.03;2064426;28;20042;-71
2023/03/24 02:16:36;;;;;;;11.02;8.77;;;;;;;-146.25;100.00;52441.19;2065533;28;20250;-70
2023/03/24 02:18:07;;;;;;;13.98;9.00;;;;;;;-146.25;100.00;52427.00;2064491;28;20038;-71
2023/03/24 02:19:52;;;;;;;14.75;9.35;;;;;;;-146.25;100.00;52416.84;2068968;28;20054;-71
2023/03/24 02:21:18;;;;;;;10.63;8.00;;;;;;;-146.25;100.00;52400.63;2065324;28;20054;-70
2023/03/24 02:22:57;;;;;;;13.98;9.52;;;;;;;-146.25;100.00;52473.63;2068703;28;20062;-71
2023/03/24 02:24:58;;;;;;;14.10;9.10;;;;;;;-146.25;100.00;52402.66;2073174;28;20050;-72
2023/03/24 02:26:32;;;;;;;16.48;9.15;;;;;;;-146.25;100.00;52449.31;2064146;28;20054;-72
2023/03/24 02:28:14;;;;;;;14.93;9.65;;;;;;;-146.25;100.00;52422.94;2037981;29;20064;-70
2023/03/24 02:29:43;;;;;;;11.75;9.02;;;;;;;-146.25;100.00;52400.63;2061162;28;20056;-71
2023/03/24 02:31:23;;;;;;;14.30;9.60;;;;;;;-146.25;100.00;52424.97;2072718;28;20050;-72
2023/03/24 02:32:54;;;;;;;12.38;9.65;;;;;;;-146.25;100.00;52414.84;2064093;28;20043;-70
2023/03/24 02:34:45;;;;;;;14.70;9.90;;;;;;;-146.25;100.00;52439.16;2069052;28;20144;-71
2023/03/24 02:36:10;;;;;;;15.25;10.10;;;;;;;-146.25;100.00;52443.22;2072627;28;20904;-72
2023/03/24 02:37:54;;;;;;;13.32;9.65;;;;;;;-146.25;100.00;52380.38;2066135;28;20054;-70
2023/03/24 02:39:54;;;;;;;14.25;9.82;;;;;;;-146.25;100.00;52420.91;2063408;28;20097;-71
2023/03/24 02:41:23;;;;;;;15.23;10.70;;;;;;;-146.25;100.00;52410.78;2073420;28;20050;-71
2023/03/24 02:42:43;;;;;;;13.73;10.88;;;;;;;-146.25;100.00;52420.91;2073783;28;20047;-72
2023/03/24 02:44:19;;;;;;;14.73;10.52;;;;;;;-146.25;100.00;52400.63;2065416;28;20885;-71
2023/03/24 02:45:48;;;;;;;11.45;10.35;;;;;;;-146.25;100.00;52463.50;2068647;28;20034;-72
2023/03/24 02:47:24;;;;;;;12.20;10.73;;;;;;;-146.25;100.00;52439.16;2065377;28;20162;-70
2023/03/24 02:48:40;;;;;;;12.77;9.98;;;;;;;-146.25;100.00;52424.97;2057280;28;20043;-72
2023/03/24 02:50:06;;;;;;;16.98;11.60;;;;;;;-146.25;100.00;52394.56;2066953;28;20051;-71
2023/03/24 02:51:42;;;;;;;14.93;11.20;;;;;;;-146.25;100.00;52420.91;2064891;28;20139;-72
2023/03/24 02:53:24;;;;;;;14.07;10.95;;;;;;;-146.25;100.00;52437.13;2063251;28;20158;-73
2023/03/24 02:54:55;;;;;;;13.88;11.63;;;;;;;-146.25;100.00;52457.41;2046940;28;20063;-71
2023/03/24 02:56:16;;;;;;;16.05;11.60;;;;;;;-146.25;100.00;52459.44;2045350;28;20178;-71
2023/03/24 02:57:32;;;;;;;13.85;11.18;;;;;;;-146.25;100.00;52396.59;2062215;28;20209;-73
2023/03/24 02:59:03;;;;;;;15.20;11.15;;;;;;;-146.25;100.00;52455.38;2071923;28;20050;-72
2023/03/24 03:00:25;;;;;;;15.52;11.30;;;;;;;-146.25;100.00;52459.44;2063482;28;20865;-73
2023/03/24 03:02:13;;;;;;;13.43;11.13;;;;;;;-146.25;100.00;52396.59;2051958;28;21147;-71
2023/03/24 03:03:37;;;;;;;15.00;11.75;;;;;;;-146.25;100.00;52427.00;2063469;28;20851;-71
2023/03/24 03:04:53;;;;;;;18.08;11.90;;;;;;;-146.25;100.00;52431.06;2058417;28;20042;-71
2023/03/24 03:06:12;;;;;;;14.80;11.95;;;;;;;-146.25;100.00;52412.81;2063445;28;20055;-70
2023/03/24 03:07:20;;;;;;;15.30;12.05;;;;;;;-146.25;100.00;52404.69;2066221;28;20050;-70
2023/03/24 03:08:26;;;;;;;13.82;12.43;;;;;;;-146.25;100.00;52416.84;2072318;28;20125;-70
2023/03/24 03:09:29;;;;;;;15.27;13.07;;;;;;;-146.25;100.00;52376.31;2064384;28;20054;-70
2023/03/24 03:10:39;;;;;;;15.25;13.05;;;;;;;-146.25;100.00;52439.16;2064477;28;20353;-70
2023/03/24 03:11:48;;;;;;;12.85;11.32;;;;;;;-146.25;100.00;52435.09;2071880;28;20055;-70
2023/03/24 03:12:57;;;;;;;13.65;12.23;;;;;;;-146.25;100.00;52414.84;2072013;28;20065;-70
2023/03/24 03:14:23;;;;;;;15.02;12.23;;;;;;;-146.25;100.00;52437.13;2063970;28;20086;-71
2023/03/24 03:15:40;;;;;;;15.32;12.35;;;;;;;-146.25;100.00;52402.66;2067104;28;20050;-70
2023/03/24 03:16:53;;;;;;;14.50;12.18;;;;;;;-146.25;100.00;52473.63;2063697;28;20132;-70
2023/03/24 03:18:18;;;;;;;15.15;12.48;;;;;;;-146.25;100.00;52410.78;2063012;28;20055;-69
2023/03/24 03:19:30;;;;;;;15.55;11.65;;;;;;;-146.25;100.00;52441.19;2067833;28;20042;-71
2023/03/24 03:20:41;;;;;;;15.93;12.07;;;;;;;-146.25;100.00;52406.72;2063779;28;20042;-70
2023/03/24 03:21:47;;;;;;;12.85;11.55;;;;;;;-146.25;100.00;52400.63;2065025;28;20094;-70
2023/03/24 03:23:05;;;;;;;13.55;12.10;;;;;;;-146.25;100.00;52408.75;2072117;28;20165;-70
2023/03/24 03:24:26;;;;;;;14.63;11.70;;;;;;;-146.25;100.00;52416.84;2069595;28;20121;-69
2023/03/24 03:25:37;;;;;;;14.85;12.25;;;;;;;-146.25;100.00;52433.06;2063675;28;20047;-70
2023/03/24 03:26:46;;;;;;;15.77;11.40;;;;;;;-146.25;100.00;52443.22;2065987;28;20042;-70
2023/03/24 03:27:49;;;;;;;13.52;11.85;;;;;;;-146.25;100.00;52433.06;2072149;28;20133;-70
2023/03/24 03:28:58;;;;;;;13.38;12.07;;;;;;;-146.25;100.00;52396.59;2063799;28;20518;-70
2023/03/24 03:30:17;;;;;;;13.20;11.38;;;;;;;-146.25;100.00;52386.44;2065280;28;20967;-70
2023/03/24 03:31:28;;;;;;;14.48;11.18;;;;;;;-146.25;100.00;52416.84;2071904;28;20057;-71
2023/03/24 03:32:37;;;;;;;13.30;10.93;;;;;;;-146.25;100.00;52418.88;2072338;28;20042;-71
2023/03/24 03:33:50;;;;;;;13.35;11.55;;;;;;;-146.25;100.00;52418.88;2063801;28;20169;-71
2023/03/24 03:35:06;;;;;;;11.60;10.45;;;;;;;-146.25;100.00;52443.22;2065475;28;20120;-71
2023/03/24 03:36:27;;;;;;;12.40;10.77;;;;;;;-146.25;100.00;52422.94;2072426;28;20112;-71
2023/03/24 03:37:50;;;;;;;12.50;11.20;;;;;;;-146.25;100.00;52420.91;2071822;28;20161;-71
2023/03/24 03:39:14;;;;;;;11.85;10.70;;;;;;;-146.25;100.00;52418.88;2064051;28;20035;-71
2023/03/24 03:40:24;;;;;;;12.18;10.40;;;;;;;-146.25;100.00;52431.06;2066875;28;20116;-72
2023/03/24 03:41:33;;;;;;;11.93;10.15;;;;;;;-146.25;100.00;52439.16;2063658;28;20051;-71
2023/03/24 03:42:35;;;;;;;12.23;10.65;;;;;;;-146.25;100.00;52439.16;2063637;28;20089;-70
2023/03/24 03:43:37;;;;;;;13.68;10.63;;;;;;;-146.25;100.00;52433.06;2063535;28;20102;-71
2023/03/24 03:44:42;;;;;;;11.57;10.48;;;;;;;-146.25;100.00;52404.69;2063116;28;20094;-71
2023/03/24 03:45:45;;;;;;;11.68;9.65;;;;;;;-146.25;100.00;52418.88;2062808;28;20035;-72
2023/03/24 03:46:48;;;;;;;11.38;10.02;;;;;;;-146.25;100.00;52406.72;2063473;28;20248;-71
2023/03/24 03:47:57;;;;;;;11.90;10.70;;;;;;;-146.25;100.00;52424.97;2065122;28;20109;-72
2023/03/24 03:48:59;;;;;;;12.27;10.85;;;;;;;-146.25;100.00;52380.38;2063566;28;20058;-70
2023/03/24 03:50:03;;;;;;;13.23;10.63;;;;;;;-146.25;100.00;52408.75;2063751;28;20157;-71
2023/03/24 03:51:06;;;;;;;11.50;10.20;;;;;;;-146.25;100.00;52418.88;2062936;28;20095;-71
2023/03/24 03:52:18;;;;;;;12.48;10.52;;;;;;;-146.25;100.00;52400.63;2065007;28;20097;-70
2023/03/24 03:53:32;;;;;;;11.10;10.00;;;;;;;-146.25;100.00;52471.59;2063169;28;20058;-70
2023/03/24 03:54:40;;;;;;;12.02;10.55;;;;;;;-146.25;100.00;52424.97;2064834;28;20828;-70
2023/03/24 03:55:42;;;;;;;11.77;10.57;;;;;;;-146.25;100.00;52420.91;2063364;28;20926;-71
2023/03/24 03:56:45;;;;;;;12.70;10.85;;;;;;;-146.25;100.00;52420.91;2063171;28;20272;-72
2023/03/24 03:57:54;;;;;;;14.63;11.07;;;;;;;-146.25;100.00;52424.97;2056468;28;20917;-71
2023/03/24 03:59:06;;;;;;;11.85;10.55;;;;;;;-146.25;100.00;52445.25;2056956;28;20747;-72
2023/03/24 04:00:19;;;;;;;11.60;10.45;;;;;;;-146.25;100.00;52424.97;2055918;28;20949;-72
2023/03/24 04:01:36;;;;;;;13.63;10.73;;;;;;;-146.25;100.00;52437.13;2058283;28;20828;-72
2023/03/24 04:03:37;;;;;;;11.82;10.63;;;;;;;-146.25;100.00;52394.56;2058020;28;20833;-72
2023/03/24 04:06:56;;;;;;;10.82;9.82;;;;;;;-146.25;100.00;52455.38;2089003;28;20112;-78
2023/03/24 04:08:31;;;;;;;11.52;10.35;;;;;;;-146.25;100.00;52427.00;2088296;28;20042;-78
2023/03/24 04:10:25;;;;;;;11.07;10.07;;;;;;;-146.25;100.00;52416.84;2078766;28;20053;-78
2023/03/24 04:12:16;;;;;;;11.55;10.35;;;;;;;-146.25;100.00;52420.91;2079958;28;20050;-78
2023/03/24 04:13:55;;;;;;;12.80;10.95;;;;;;;-146.25;100.00;52418.88;2087527;28;20092;-78
2023/03/24 04:15:28;;;;;;;12.25;10.98;;;;;;;-146.25;100.00;52414.84;2088103;28;20037;-78
2023/03/24 04:17:13;;;;;;;12.73;10.88;;;;;;;-146.25;100.00;52406.72;2080205;28;20954;-78
2023/03/24 04:18:35;;;;;;;11.73;10.52;;;;;;;-146.25;100.00;52408.75;2078343;28;20163;-77
2023/03/24 04:20:25;;;;;;;12.75;11.10;;;;;;;-146.25;100.00;52396.59;2074660;28;20127;-78
2023/03/24 04:22:03;;;;;;;13.48;10.63;;;;;;;-146.25;100.00;52433.06;2072535;28;20042;-78
2023/03/24 04:23:29;;;;;;;12.77;11.50;;;;;;;-146.25;100.00;52465.53;2063969;28;20042;-76
2023/03/24 04:24:58;;;;;;;11.68;10.52;;;;;;;-146.25;100.00;52412.81;2075193;28;21117;-78
2023/03/24 04:26:09;;;;;;;12.85;11.55;;;;;;;-146.25;100.00;52427.00;2083343;28;20115;-77
2023/03/24 04:27:16;;;;;;;11.68;10.48;;;;;;;-146.25;100.00;52414.84;2079677;28;20045;-77
2023/03/24 04:28:51;;;;;;;12.52;11.23;;;;;;;-146.25;100.00;52437.13;2063844;28;20788;-77
2023/03/24 04:30:29;;;;;;;11.38;10.23;;;;;;;-146.25;100.00;52427.00;2075943;28;21012;-77
2023/03/24 04:31:42;;;;;;;12.45;11.15;;;;;;;-146.25;100.00;52414.84;2084595;28;20053;-77
2023/03/24 04:32:53;;;;;;;11.98;10.88;;;;;;;-146.25;100.00;52420.91;2088040;28;20827;-77
2023/03/24 04:34:24;;;;;;;11.15;9.95;;;;;;;-146.25;100.00;52422.94;2079039;28;20124;-77
2023/03/24 04:35:35;;;;;;;11.23;10.13;;;;;;;-146.25;100.00;52420.91;2083977;28;20135;-77
2023/03/24 04:37:11;;;;;;;11.32;10.27;;;;;;;-146.25;100.00;52433.06;2073875;28;20043;-76
2023/03/24 04:38:37;;;;;;;11.88;9.90;;;;;;;-146.25;100.00;52445.25;2078971;28;20448;-77
2023/03/24 04:40:00;;;;;;;11.10;10.05;;;;;;;-146.25;100.00;52398.59;2074401;28;20087;-78
2023/03/24 04:41:04;;;;;;;12.00;9.57;;;;;;;-146.25;100.00;52422.94;2079415;28;20923;-78
2023/03/24 04:42:27;;;;;;;10.60;9.50;;;;;;;-146.25;100.00;52392.53;2072712;28;20050;-77
2023/03/24 04:43:36;;;;;;;10.23;9.23;;;;;;;-146.25;100.00;52441.19;2074803;28;20034;-77
2023/03/24 04:44:44;;;;;;;11.38;10.27;;;;;;;-146.25;100.00;52437.13;2071379;28;20050;-77
2023/03/24 04:46:07;;;;;;;10.73;9.68;;;;;;;-146.25;100.00;52427.00;2079028;28;20156;-79
2023/03/24 04:47:45;;;;;;;10.35;9.45;;;;;;;-146.25;100.00;52424.97;2078040;28;20943;-77
2023/03/24 04:49:11;;;;;;;11.25;9.00;;;;;;;-146.25;100.00;52429.03;2079465;28;20187;-77
2023/03/24 04:50:29;;;;;;;10.07;9.07;;;;;;;-146.25;100.00;52443.22;2079292;28;21013;-77
2023/03/24 04:51:33;;;;;;;10.98;8.95;;;;;;;-146.25;100.00;52408.75;2073661;28;20057;-76
2023/03/24 04:52:41;;;;;;;9.90;8.90;;;;;;;-146.25;100.00;52441.19;2066179;28;20970;-77
2023/03/24 04:53:45;;;;;;;9.48;8.57;;;;;;;-146.25;100.00;52402.66;2063907;28;20127;-77
2023/03/24 04:54:47;;;;;;;10.10;9.10;;;;;;;-146.25;100.00;52400.63;2071779;28;20054;-77
2023/03/24 04:55:49;;;;;;;10.82;8.77;;;;;;;-146.25;100.00;52420.91;2079204;28;20082;-77
2023/03/24 04:57:02;;;;;;;9.88;8.68;;;;;;;-146.25;100.00;52420.91;2079190;28;20192;-77
2023/03/24 04:58:07;;;;;;;10.27;8.52;;;;;;;-146.25;100.00;52390.50;2079054;28;20037;-77
2023/03/24 04:59:11;;;;;;;9.15;8.35;;;;;;;-146.25;100.00;52396.59;2071232;28;20042;-77
2023/03/24 05:00:15;;;;;;;10.57;8.48;;;;;;;-146.25;100.00;52431.06;2080369;28;20093;-77
2023/03/24 05:01:20;;;;;;;9.23;8.35;;;;;;;-146.25;100.00;52402.66;2079533;28;20041;-77
2023/03/24 05:02:41;;;;;;;9.57;8.63;;;;;;;-146.25;100.00;52384.41;2074237;28;20050;-77
2023/03/24 05:03:51;;;;;;;8.55;7.35;;;;;;;-146.25;100.00;52402.66;2081102;28;20030;-77
2023/03/24 05:04:54;;;;;;;8.88;7.95;;;;;;;-146.25;100.00;52408.75;2079389;28;20038;-78
2023/03/24 05:06:09;;;;;;;9.13;7.20;;;;;;;-146.25;100.00;52437.13;2080723;28;20069;-78
2023/03/24 05:07:11;;;;;;;8.75;7.85;;;;;;;-146.25;100.00;52435.09;2087886;28;20516;-76
2023/03/24 05:08:15;;;;;;;8.00;7.30;;;;;;;-146.25;100.00;52400.63;2079156;28;20064;-77
2023/03/24 05:09:20;;;;;;;7.53;6.72;;;;;;;-146.25;100.00;52390.50;2079695;28;20855;-77
2023/03/24 05:10:23;;;;;;;7.93;6.93;;;;;;;-146.25;100.00;52416.84;2080239;28;20057;-78
2023/03/24 05:11:28;;;;;;;7.65;6.85;;;;;;;-146.25;100.00;52429.03;2079568;28;20042;-78
2023/03/24 05:12:37;;;;;;;6.65;6.03;;;;;;;-146.25;100.00;52435.09;2080460;28;20038;-77
2023/03/24 05:14:05;;;;;;;7.00;6.30;;;;;;;-146.25;100.00;52437.13;2079067;28;21252;-77
2023/03/24 05:15:07;;;;;;;7.20;6.45;;;;;;;-146.25;100.00;52435.09;2079677;28;20045;-77
2023/03/24 05:16:13;;;;;;;7.53;6.40;;;;;;;-146.25;100.00;52412.81;2071526;28;20843;-77
2023/03/24 05:17:21;;;;;;;6.55;5.60;;;;;;;-146.25;100.00;52404.69;2072637;28;20054;-78
2023/03/24 05:18:23;;;;;;;6.47;5.88;;;;;;;-146.25;100.00;52469.56;2072218;28;20077;-77
2023/03/24 05:19:27;;;;;;;6.68;5.45;;;;;;;-146.25;100.00;52418.88;2079325;28;24483;-76
2023/03/24 05:20:30;;;;;;;6.30;5.65;;;;;;;-146.25;100.00;52429.03;2079273;28;20853;-76
2023/03/24 05:21:42;;;;;;;8.38;5.32;;;;;;;-146.25;100.00;52400.63;2072885;28;20955;-74
2023/03/24 05:22:44;;;;;;;5.78;5.13;;;;;;;-146.25;100.00;52366.16;2062930;28;20051;-79
2023/03/24 05:23:46;;;;;;;4.85;4.32;;;;;;;-146.25;100.00;52445.25;2071412;28;20050;-76
2023/03/24 05:24:48;;;;;;;4.72;4.32;;;;;;;-146.25;100.00;52406.72;2116143;22;21294;-72
2023/03/24 05:25:50;;;;;;;5.60;3.80;;;;;;;-146.25;100.00;52459.44;2099340;28;20668;-72
2023/03/24 05:26:56;;;;;;;3.42;3.03;;;;;;;-146.25;100.00;52400.63;2087699;28;20886;-71
2023/03/24 05:27:58;;;;;;;3.90;2.38;;;;;;;-146.25;100.00;52449.31;2088043;28;20169;-71